Rhenen, Netherlands
Current Conditions -  °F | °C
As of 9:25 AM on Friday 31 Oct 2014 (Local Time) from EHDL Reporting Station
Overcast Overcast  
Wind Chill: 55°   Ceiling: 9900
Heat Index: 55°   Visibility: 6mi
Dew Point: 54°   Wind: 8mph
Humidity: 94%   Direction: 180°S
Pressure: 30.18"   Gusts: NA
Location:  51.96°N, 5.57°E
Report Text: EHDL 310825Z AUTO 18007KT 9999 SCT094 BKN099 OVC100 13/12 Q1022 BLU
Loading
Personal Weather Stations






























Interactive Weather Map
Tropical Storm Tracking
New forecast layout! Learn more

10-Day Weather Forecast

Advertisements
Track Severe Weather on mobile